Time;durP1;ratioP1;P1;durP2;ratioP2;P2;SDS_P1;SDS_P2;PMS_P1;PMS_P2;Temp;Humidity;BMP_temperature;BMP_pressure;BME280_temperature;BME280_humidity;BME280_pressure;Samples;Min_cycle;Max_cycle;Signal;HPM_P1;HPM_P2
2022/07/20 00:01:03;;;;;;;5.57;4.07;;;21.20;99.90;;;;;;6125107;23;20680;-87
2022/07/20 00:03:30;;;;;;;4.30;3.90;;;21.20;99.90;;;;;;6101157;23;20164;-87
2022/07/20 00:05:56;;;;;;;5.20;4.70;;;21.20;99.90;;;;;;6124742;23;20534;-87
2022/07/20 00:11:22;;;;;;;5.93;4.57;;;21.10;99.90;;;;;;6125057;23;20676;-87
2022/07/20 00:13:54;;;;;;;4.50;4.10;;;21.10;99.90;;;;;;6126215;23;20196;-88
2022/07/20 00:16:22;;;;;;;4.60;3.87;;;21.10;99.90;;;;;;6124807;23;20263;-88
2022/07/20 00:18:49;;;;;;;4.40;4.00;;;21.00;99.90;;;;;;6100636;23;20184;-87
2022/07/20 00:21:14;;;;;;;5.30;4.80;;;21.00;99.90;;;;;;6125483;23;20538;-88
2022/07/20 00:23:40;;;;;;;5.17;4.03;;;20.90;99.90;;;;;;6100464;23;20204;-87
2022/07/20 00:26:07;;;;;;;4.27;3.87;;;20.90;99.90;;;;;;6124825;23;20204;-87
2022/07/20 00:28:33;;;;;;;4.10;3.67;;;20.90;99.90;;;;;;6124544;23;20212;-87
2022/07/20 00:30:59;;;;;;;4.00;3.60;;;20.90;99.90;;;;;;6076033;23;20196;-87
2022/07/20 00:33:25;;;;;;;4.67;4.27;;;20.90;99.90;;;;;;6126888;23;20203;-87
2022/07/20 00:35:50;;;;;;;5.23;4.70;;;20.90;99.90;;;;;;6077729;23;20216;-87
2022/07/20 00:38:16;;;;;;;6.17;3.80;;;20.80;99.90;;;;;;6078085;23;20207;-86
2022/07/20 00:40:42;;;;;;;5.03;3.77;;;20.80;99.90;;;;;;6101752;23;20196;-87
2022/07/20 00:43:08;;;;;;;4.43;4.03;;;20.80;99.90;;;;;;6126351;23;20220;-86
2022/07/20 00:45:34;;;;;;;3.73;3.43;;;20.70;99.90;;;;;;6077689;23;20164;-87
2022/07/20 00:48:00;;;;;;;4.60;4.20;;;20.70;99.90;;;;;;6102548;23;20184;-87
2022/07/20 00:50:26;;;;;;;8.30;3.63;;;20.70;99.90;;;;;;6101776;23;20203;-87
2022/07/20 00:52:52;;;;;;;5.60;3.80;;;20.70;99.90;;;;;;6101927;23;20263;-87
2022/07/20 00:55:18;;;;;;;6.13;3.77;;;20.60;99.90;;;;;;6078065;23;20575;-87
2022/07/20 00:57:44;;;;;;;4.83;3.70;;;20.60;99.90;;;;;;6127681;23;20612;-87
2022/07/20 01:00:10;;;;;;;6.27;3.83;;;20.50;99.90;;;;;;6102042;23;20188;-87
2022/07/20 01:02:36;;;;;;;3.60;3.30;;;20.50;99.90;;;;;;6077871;23;20203;-86
2022/07/20 01:05:04;;;;;;;3.53;3.23;;;20.50;99.90;;;;;;6101673;23;20625;-87
2022/07/20 01:07:30;;;;;;;7.23;4.23;;;20.50;99.90;;;;;;6125838;23;20198;-87
2022/07/20 01:09:55;;;;;;;7.40;4.00;;;20.50;99.90;;;;;;6101744;23;20188;-87
2022/07/20 01:12:21;;;;;;;5.30;3.27;;;20.40;99.90;;;;;;6102254;23;20620;-86
2022/07/20 01:14:54;;;;;;;7.97;4.00;;;20.20;99.90;;;;;;6101507;23;20275;-87
2022/07/20 01:17:19;;;;;;;4.27;3.60;;;20.10;99.90;;;;;;6127423;23;20192;-87
2022/07/20 01:19:45;;;;;;;5.43;3.73;;;20.00;99.90;;;;;;6125954;23;20206;-86
2022/07/20 01:22:11;;;;;;;6.80;3.80;;;20.00;99.90;;;;;;6101702;23;20708;-87
2022/07/20 01:24:37;;;;;;;4.77;3.77;;;20.00;99.90;;;;;;6101238;23;20198;-87
2022/07/20 01:27:04;;;;;;;4.00;3.60;;;19.90;99.90;;;;;;6078529;23;20161;-87
2022/07/20 01:29:30;;;;;;;5.57;3.53;;;19.70;99.90;;;;;;6127164;23;20283;-87
2022/07/20 01:31:56;;;;;;;5.90;3.73;;;19.60;99.90;;;;;;6101520;23;20242;-86
2022/07/20 01:34:22;;;;;;;4.30;3.90;;;19.50;99.90;;;;;;6101048;23;20214;-87
2022/07/20 01:36:47;;;;;;;3.60;3.30;;;19.30;99.90;;;;;;6101788;23;20235;-87
2022/07/20 01:39:14;;;;;;;3.93;3.53;;;19.20;99.90;;;;;;6102427;23;20156;-87
2022/07/20 01:41:40;;;;;;;3.97;3.57;;;19.30;99.90;;;;;;6125811;23;20629;-87
2022/07/20 01:44:06;;;;;;;4.67;3.80;;;19.30;99.90;;;;;;6101149;23;20200;-86
2022/07/20 01:46:32;;;;;;;3.80;3.43;;;19.30;99.90;;;;;;6101070;23;20530;-86
2022/07/20 01:48:58;;;;;;;3.87;3.57;;;19.30;99.90;;;;;;6077381;23;20215;-86
2022/07/20 01:51:24;;;;;;;4.63;3.90;;;19.40;99.90;;;;;;6101940;23;20170;-86
2022/07/20 01:53:50;;;;;;;4.03;3.50;;;19.40;99.90;;;;;;6077230;23;20287;-86
2022/07/20 01:56:15;;;;;;;4.73;4.23;;;19.40;99.90;;;;;;6077236;23;20204;-85
2022/07/20 01:58:41;;;;;;;4.77;3.63;;;19.40;99.90;;;;;;6077406;23;20196;-86
2022/07/20 02:01:07;;;;;;;3.63;3.33;;;19.60;99.90;;;;;;6100969;23;20196;-86
2022/07/20 02:03:33;;;;;;;5.03;3.90;;;19.80;99.90;;;;;;6077405;23;20183;-86
2022/07/20 02:05:58;;;;;;;6.00;3.73;;;19.80;99.90;;;;;;6101467;23;20157;-86
2022/07/20 02:08:25;;;;;;;4.63;3.80;;;19.80;99.90;;;;;;6100919;23;20200;-87
2022/07/20 02:10:52;;;;;;;3.80;3.40;;;19.80;99.90;;;;;;6077230;23;20191;-86
2022/07/20 02:13:18;;;;;;;3.83;3.53;;;19.80;99.90;;;;;;6125603;23;20188;-86
2022/07/20 02:18:28;;;;;;;4.87;4.33;;;19.70;99.90;;;;;;6126046;23;20148;-87
2022/07/20 02:20:54;;;;;;;5.67;4.10;;;19.50;99.90;;;;;;6077059;23;20203;-86
2022/07/20 02:23:19;;;;;;;3.97;3.57;;;19.60;99.90;;;;;;6100873;23;20204;-87
2022/07/20 02:25:45;;;;;;;5.67;4.00;;;19.40;99.90;;;;;;6100749;23;20207;-86
2022/07/20 02:28:11;;;;;;;5.63;4.60;;;19.40;99.90;;;;;;6077000;23;20286;-86
2022/07/20 02:30:38;;;;;;;5.43;4.03;;;19.40;99.90;;;;;;6077231;23;20540;-86
2022/07/20 02:33:04;;;;;;;3.93;3.53;;;19.40;99.90;;;;;;6125601;23;20243;-86
2022/07/20 02:35:30;;;;;;;7.67;4.17;;;19.50;99.90;;;;;;6100620;23;20221;-86
2022/07/20 02:37:56;;;;;;;4.67;3.77;;;19.50;99.90;;;;;;6100544;23;20562;-87
2022/07/20 02:40:21;;;;;;;4.20;3.70;;;19.50;99.90;;;;;;6076724;23;20191;-86
2022/07/20 02:42:47;;;;;;;3.90;3.50;;;19.60;99.90;;;;;;6076695;23;20192;-86
2022/07/20 02:45:13;;;;;;;6.70;3.43;;;19.60;99.90;;;;;;6077674;23;20161;-86
2022/07/20 02:47:46;;;;;;;5.80;3.80;;;19.60;99.90;;;;;;6076696;23;20212;-86
2022/07/20 02:50:13;;;;;;;3.73;3.43;;;19.60;99.90;;;;;;6100448;23;20649;-86
2022/07/20 02:52:40;;;;;;;4.33;3.50;;;19.70;99.90;;;;;;6124868;23;20199;-86
2022/07/20 02:55:07;;;;;;;4.67;3.57;;;19.60;99.90;;;;;;6126077;23;20208;-85
2022/07/20 02:57:33;;;;;;;5.80;4.10;;;19.50;99.90;;;;;;6100551;23;20192;-86
2022/07/20 02:59:58;;;;;;;5.93;4.37;;;19.50;99.90;;;;;;6101360;23;20157;-86
2022/07/20 03:02:24;;;;;;;5.20;3.43;;;19.50;99.90;;;;;;6124654;23;20247;-86
2022/07/20 03:04:50;;;;;;;3.90;3.50;;;19.60;99.90;;;;;;6100417;23;20657;-86
2022/07/20 03:07:16;;;;;;;3.67;3.17;;;19.80;99.90;;;;;;6100224;23;20199;-86
2022/07/20 03:09:42;;;;;;;3.63;3.33;;;19.90;99.90;;;;;;6100565;23;20188;-87
2022/07/20 03:12:09;;;;;;;4.67;3.47;;;20.00;99.90;;;;;;6100841;23;20246;-86
2022/07/20 03:14:34;;;;;;;3.93;3.37;;;19.90;99.90;;;;;;6076641;23;20195;-86
2022/07/20 03:17:00;;;;;;;3.83;3.43;;;19.60;99.90;;;;;;6100365;23;20555;-86
2022/07/20 03:19:26;;;;;;;6.70;4.13;;;19.30;99.90;;;;;;6100405;23;20199;-86
2022/07/20 03:21:52;;;;;;;7.17;4.10;;;19.20;99.90;;;;;;6075960;23;20222;-86
2022/07/20 03:24:17;;;;;;;4.20;3.80;;;19.10;99.90;;;;;;6076731;23;20170;-86
2022/07/20 03:26:43;;;;;;;4.37;3.33;;;19.20;99.90;;;;;;6076101;23;20192;-86
2022/07/20 03:29:09;;;;;;;3.90;3.60;;;19.20;99.90;;;;;;6099980;23;20683;-86
2022/07/20 03:31:34;;;;;;;4.80;3.77;;;19.20;99.90;;;;;;6099722;23;20199;-86
2022/07/20 03:34:00;;;;;;;5.17;4.20;;;19.30;99.90;;;;;;6072591;23;20346;-86
2022/07/20 03:36:26;;;;;;;5.20;4.70;;;19.30;99.90;;;;;;6047750;23;20152;-86
2022/07/20 03:38:51;;;;;;;8.40;4.27;;;19.30;99.90;;;;;;6023529;23;20279;-86
2022/07/20 03:41:17;;;;;;;4.57;4.03;;;19.10;99.90;;;;;;6023802;23;20260;-86
2022/07/20 03:43:44;;;;;;;4.70;3.83;;;19.20;99.90;;;;;;6047469;23;20193;-86
2022/07/20 03:46:11;;;;;;;5.07;3.70;;;19.30;99.90;;;;;;6024578;23;20491;-86
2022/07/20 03:48:37;;;;;;;6.10;3.87;;;19.50;99.90;;;;;;6047310;23;20284;-86
2022/07/20 03:51:04;;;;;;;3.63;3.33;;;19.60;99.90;;;;;;6072166;23;20638;-86
2022/07/20 03:53:29;;;;;;;4.60;3.90;;;19.70;99.90;;;;;;6047308;23;20199;-86
2022/07/20 03:55:55;;;;;;;6.17;3.13;;;19.80;99.90;;;;;;6047328;23;20275;-86
2022/07/20 03:58:21;;;;;;;6.23;3.70;;;19.80;99.90;;;;;;6047283;23;20188;-86
2022/07/20 04:00:46;;;;;;;5.93;3.73;;;19.90;99.90;;;;;;6024006;23;20207;-86
2022/07/20 04:03:12;;;;;;;6.57;3.73;;;20.00;99.90;;;;;;6024480;23;20154;-86
2022/07/20 04:05:38;;;;;;;5.97;3.70;;;20.00;99.90;;;;;;6047151;23;20192;-86
2022/07/20 04:08:08;;;;;;;6.90;4.00;;;19.90;99.90;;;;;;6048588;23;20204;-86
2022/07/20 04:10:35;;;;;;;4.40;3.43;;;19.80;99.90;;;;;;6073459;23;20199;-86
2022/07/20 04:13:04;;;;;;;8.87;4.57;;;20.00;99.90;;;;;;6049766;23;20188;-85
2022/07/20 04:15:30;;;;;;;3.63;3.33;;;20.20;99.90;;;;;;6050733;23;20256;-86
2022/07/20 04:17:56;;;;;;;4.20;3.80;;;20.30;99.90;;;;;;6098291;23;20224;-85
2022/07/20 04:20:22;;;;;;;4.23;3.83;;;20.40;99.90;;;;;;6049201;23;20200;-86
2022/07/20 04:22:47;;;;;;;6.47;3.90;;;20.50;99.90;;;;;;6025806;23;20230;-86
2022/07/20 04:25:13;;;;;;;4.77;4.30;;;20.40;99.90;;;;;;6025741;23;20196;-86
2022/07/20 04:27:39;;;;;;;5.40;4.40;;;20.50;99.90;;;;;;6048782;23;20160;-86
2022/07/20 04:30:06;;;;;;;4.30;3.67;;;20.60;99.90;;;;;;6050251;23;20243;-86
2022/07/20 04:32:31;;;;;;;5.50;4.00;;;20.70;99.90;;;;;;6073089;23;20561;-86
2022/07/20 04:34:57;;;;;;;4.73;4.03;;;20.90;99.90;;;;;;6097319;23;20215;-87
2022/07/20 04:37:23;;;;;;;5.07;3.57;;;21.10;99.90;;;;;;6078639;23;20600;-88
2022/07/20 04:39:49;;;;;;;5.97;4.40;;;21.20;99.90;;;;;;6101224;23;20172;-88
2022/07/20 04:42:15;;;;;;;4.73;4.23;;;21.40;99.90;;;;;;6101657;23;20235;-86
2022/07/20 04:44:40;;;;;;;5.57;3.60;;;21.50;99.90;;;;;;6101842;23;20203;-87
2022/07/20 04:47:06;;;;;;;4.07;3.47;;;21.60;99.90;;;;;;6078442;23;20224;-87
2022/07/20 04:49:32;;;;;;;7.83;4.23;;;21.70;99.90;;;;;;6077863;23;20204;-87
2022/07/20 04:51:57;;;;;;;5.10;4.23;;;21.70;99.90;;;;;;6125871;23;20202;-87
2022/07/20 04:54:23;;;;;;;4.07;3.50;;;21.70;99.90;;;;;;6102701;23;20171;-88
2022/07/20 04:56:49;;;;;;;5.47;3.67;;;21.70;99.90;;;;;;6101844;23;20526;-86
2022/07/20 04:59:15;;;;;;;3.97;3.57;;;21.70;99.90;;;;;;6102007;23;20637;-87
2022/07/20 05:01:41;;;;;;;6.30;3.37;;;21.70;99.90;;;;;;6077986;23;20211;-87
2022/07/20 05:04:07;;;;;;;10.33;4.63;;;21.70;99.90;;;;;;6126516;23;20198;-87
2022/07/20 05:06:33;;;;;;;10.40;4.00;;;21.70;99.90;;;;;;6102109;23;20164;-88
2022/07/20 05:08:59;;;;;;;4.93;4.07;;;21.70;99.90;;;;;;6102735;23;20184;-88
2022/07/20 05:11:26;;;;;;;4.27;3.83;;;21.70;99.90;;;;;;6102223;23;20653;-88
2022/07/20 05:13:53;;;;;;;3.33;3.03;;;21.90;99.90;;;;;;6102675;23;20196;-88
2022/07/20 05:16:19;;;;;;;6.57;4.07;;;22.10;99.90;;;;;;6126451;23;20215;-88
2022/07/20 05:18:45;;;;;;;5.00;3.53;;;22.20;99.90;;;;;;6077824;23;20645;-89
2022/07/20 05:21:10;;;;;;;4.93;3.73;;;22.40;99.90;;;;;;6079142;23;20160;-88
2022/07/20 05:23:36;;;;;;;4.67;4.23;;;22.60;99.90;;;;;;6126559;23;20203;-88
2022/07/20 05:26:03;;;;;;;5.13;4.20;;;22.90;99.90;;;;;;6078274;23;20223;-89
2022/07/20 05:28:28;;;;;;;4.73;3.93;;;24.10;99.90;;;;;;6127311;23;20591;-87
2022/07/20 05:30:54;;;;;;;4.83;3.70;;;26.00;99.90;;;;;;6101991;23;20282;-89
2022/07/20 05:33:20;;;;;;;4.75;4.30;;;27.10;99.90;;;;;;6102608;23;20207;-88
2022/07/20 05:35:49;;;;;;;5.60;4.45;;;27.80;99.90;;;;;;6101210;23;20220;-87
2022/07/20 05:38:16;;;;;;;4.85;4.03;;;28.10;99.90;;;;;;6101896;23;20667;-88
2022/07/20 05:40:42;;;;;;;7.07;4.55;;;28.40;99.90;;;;;;6078002;23;20275;-87
2022/07/20 05:43:08;;;;;;;7.57;4.40;;;28.80;99.90;;;;;;6101589;23;20239;-87
2022/07/20 05:45:34;;;;;;;8.05;4.32;;;29.10;99.90;;;;;;6101073;23;20160;-88
2022/07/20 05:48:00;;;;;;;7.60;4.22;;;29.20;99.90;;;;;;6102264;23;20641;-88
2022/07/20 05:50:26;;;;;;;5.22;4.72;;;29.30;99.90;;;;;;6101302;23;20242;-87
2022/07/20 05:52:52;;;;;;;5.38;4.65;;;30.80;99.90;;;;;;6125654;23;20200;-88
2022/07/20 05:55:18;;;;;;;5.25;4.18;;;32.50;99.40;;;;;;6077495;23;20207;-86
2022/07/20 05:57:44;;;;;;;8.68;4.40;;;32.50;97.80;;;;;;6125435;23;20165;-86
2022/07/20 06:00:10;;;;;;;5.68;4.70;;;32.60;97.70;;;;;;6101977;23;20235;-86
2022/07/20 06:02:36;;;;;;;6.60;4.47;;;33.40;95.90;;;;;;6125319;23;20250;-86
2022/07/20 06:05:02;;;;;;;4.75;4.28;;;33.70;95.40;;;;;;6125140;23;20195;-87
2022/07/20 06:07:27;;;;;;;6.25;4.57;;;34.70;93.40;;;;;;6100697;23;20201;-86
2022/07/20 06:09:53;;;;;;;6.00;4.20;;;35.50;92.20;;;;;;6077113;23;20523;-86
2022/07/20 06:12:19;;;;;;;5.18;4.57;;;36.20;90.50;;;;;;6077755;23;20552;-87
2022/07/20 06:14:45;;;;;;;6.60;4.55;;;35.30;90.30;;;;;;6100702;23;20721;-87
2022/07/20 06:17:12;;;;;;;7.13;5.03;;;35.80;90.70;;;;;;6100496;23;20195;-87
2022/07/20 06:19:37;;;;;;;5.05;4.55;;;34.80;91.30;;;;;;6100762;23;20649;-86
2022/07/20 06:22:03;;;;;;;5.70;5.10;;;35.40;91.60;;;;;;6100575;23;20231;-87
2022/07/20 06:24:29;;;;;;;7.90;4.82;;;34.50;92.40;;;;;;6077770;23;20167;-87
2022/07/20 06:26:55;;;;;;;5.43;4.35;;;35.00;92.30;;;;;;6076807;23;20246;-87
2022/07/20 06:29:20;;;;;;;8.18;4.78;;;35.80;91.20;;;;;;6076444;23;20208;-86
2022/07/20 06:31:46;;;;;;;6.70;5.38;;;35.00;92.70;;;;;;6076570;23;20531;-87
2022/07/20 06:34:13;;;;;;;9.43;5.25;;;35.60;92.90;;;;;;6124675;23;20539;-87
2022/07/20 06:36:39;;;;;;;6.75;5.65;;;36.60;91.60;;;;;;6100837;23;20636;-87
2022/07/20 06:39:05;;;;;;;6.43;5.28;;;36.80;91.00;;;;;;6125773;23;20164;-87
2022/07/20 06:41:31;;;;;;;11.52;6.38;;;36.20;91.80;;;;;;6100544;23;20649;-86
2022/07/20 06:43:57;;;;;;;7.95;6.00;;;35.70;93.00;;;;;;6124333;23;20188;-88
2022/07/20 06:46:22;;;;;;;8.93;6.38;;;37.20;91.60;;;;;;6124877;23;20198;-87
2022/07/20 06:48:48;;;;;;;8.82;6.32;;;38.00;91.50;;;;;;6076447;23;20187;-87
2022/07/20 06:51:14;;;;;;;11.88;6.50;;;37.90;90.90;;;;;;6077511;23;20211;-88
2022/07/20 06:53:40;;;;;;;11.40;6.63;;;37.10;91.10;;;;;;6076445;23;20207;-87
2022/07/20 06:56:05;;;;;;;7.75;6.93;;;36.40;92.30;;;;;;6076610;23;20206;-85
2022/07/20 06:58:31;;;;;;;11.52;7.45;;;36.50;92.80;;;;;;6100493;23;20192;-85
2022/07/20 07:00:57;;;;;;;10.70;7.13;;;35.60;94.80;;;;;;6100550;23;20198;-85
2022/07/20 07:03:23;;;;;;;10.55;6.38;;;33.90;98.40;;;;;;6077374;23;20160;-88
2022/07/20 07:05:48;;;;;;;13.52;7.38;;;35.60;95.70;;;;;;6076590;23;20192;-86
2022/07/20 07:08:14;;;;;;;10.00;7.68;;;35.80;96.90;;;;;;6076742;23;20638;-87
2022/07/20 07:10:40;;;;;;;10.40;7.60;;;35.60;96.90;;;;;;6076490;23;20206;-87
2022/07/20 07:13:06;;;;;;;11.52;8.13;;;36.90;96.10;;;;;;6076373;23;20192;-89
2022/07/20 07:15:31;;;;;;;10.30;8.07;;;36.40;97.00;;;;;;6077614;23;20156;-88
2022/07/20 07:17:57;;;;;;;10.88;9.18;;;37.70;95.20;;;;;;6100959;23;20201;-87
2022/07/20 07:20:23;;;;;;;14.10;8.48;;;38.80;94.50;;;;;;6124595;23;20211;-87
2022/07/20 07:22:49;;;;;;;11.40;8.88;;;38.00;93.20;;;;;;6100365;23;20211;-87
2022/07/20 07:25:14;;;;;;;12.05;9.38;;;37.20;94.20;;;;;;6076284;23;20202;-87
2022/07/20 07:27:40;;;;;;;19.60;9.80;;;35.20;97.30;;;;;;6076155;23;20168;-87
2022/07/20 07:30:06;;;;;;;14.52;10.88;;;35.60;97.60;;;;;;6076830;23;20187;-87
2022/07/20 07:32:32;;;;;;;20.67;12.18;;;34.90;99.10;;;;;;6100033;23;20192;-87
2022/07/20 07:34:58;;;;;;;17.20;12.27;;;34.20;99.90;;;;;;6099897;23;20671;-87
2022/07/20 07:37:24;;;;;;;17.63;12.80;;;34.90;99.80;;;;;;6100533;23;20195;-87
2022/07/20 07:39:49;;;;;;;16.05;12.63;;;35.00;99.80;;;;;;6124722;23;20187;-87
2022/07/20 07:42:15;;;;;;;23.38;13.27;;;35.40;99.10;;;;;;6100890;23;20487;-87
2022/07/20 07:44:41;;;;;;;21.23;12.80;;;35.70;98.00;;;;;;6100370;23;20196;-88
2022/07/20 07:47:07;;;;;;;22.02;13.00;;;35.50;99.10;;;;;;6100090;23;20204;-88
2022/07/20 07:49:32;;;;;;;17.80;13.02;;;34.50;99.90;;;;;;6124442;23;20231;-88
2022/07/20 07:51:58;;;;;;;22.42;13.90;;;33.30;99.90;;;;;;6100663;23;20195;-89
2022/07/20 07:54:24;;;;;;;17.65;12.40;;;33.50;99.90;;;;;;6101436;23;20167;-90
2022/07/20 07:56:49;;;;;;;20.55;13.65;;;35.20;99.90;;;;;;6100671;23;20578;-89
2022/07/20 07:59:15;;;;;;;21.60;12.50;;;34.10;99.90;;;;;;6100230;23;20199;-87
2022/07/20 08:01:41;;;;;;;24.73;13.10;;;34.60;99.90;;;;;;6100457;23;20532;-89
2022/07/20 08:04:07;;;;;;;19.02;13.52;;;35.40;99.90;;;;;;6100346;23;20267;-88
2022/07/20 08:06:33;;;;;;;19.15;13.23;;;34.30;99.90;;;;;;6100503;23;20526;-90
2022/07/20 08:08:59;;;;;;;23.52;13.13;;;34.20;99.90;;;;;;6101425;23;20187;-89
2022/07/20 08:11:25;;;;;;;22.08;13.80;;;33.80;99.90;;;;;;6125047;23;20255;-90
2022/07/20 08:13:50;;;;;;;22.30;13.82;;;33.50;99.90;;;;;;6100687;23;20247;-89
2022/07/20 08:16:16;;;;;;;22.10;14.18;;;33.20;99.90;;;;;;6124990;23;20587;-90
2022/07/20 08:18:42;;;;;;;20.65;14.20;;;33.00;99.90;;;;;;6100901;23;20242;-89
2022/07/20 08:21:09;;;;;;;19.73;13.43;;;32.70;99.90;;;;;;6100924;23;20251;-89
2022/07/20 08:23:34;;;;;;;17.17;13.75;;;31.80;99.90;;;;;;6100451;23;20208;-87
2022/07/20 08:26:00;;;;;;;22.35;15.10;;;32.00;99.90;;;;;;6100134;23;20202;-88
2022/07/20 08:28:26;;;;;;;22.83;13.80;;;31.90;99.90;;;;;;6123737;23;20646;-88
2022/07/20 08:30:52;;;;;;;20.85;14.30;;;31.70;99.90;;;;;;6100280;23;20430;-87
2022/07/20 08:33:19;;;;;;;19.75;14.25;;;32.40;99.90;;;;;;6124954;23;20156;-88
2022/07/20 08:35:45;;;;;;;21.48;14.95;;;34.30;99.90;;;;;;6099835;23;20575;-87
2022/07/20 08:38:11;;;;;;;21.02;13.60;;;34.80;99.90;;;;;;6100328;23;20680;-89
2022/07/20 08:40:38;;;;;;;15.85;12.48;;;34.50;99.90;;;;;;6099925;23;20203;-87
2022/07/20 08:43:05;;;;;;;23.73;13.15;;;33.90;99.90;;;;;;6099893;23;20196;-87
2022/07/20 08:45:31;;;;;;;24.15;14.35;;;32.40;99.90;;;;;;6100880;23;20187;-88
2022/07/20 08:48:00;;;;;;;27.00;14.68;;;32.60;99.90;;;;;;6124219;23;20204;-88
2022/07/20 08:50:28;;;;;;;21.35;15.85;;;31.40;99.90;;;;;;6100433;23;20196;-87
2022/07/20 08:52:55;;;;;;;23.30;16.05;;;31.10;99.90;;;;;;6124472;23;20657;-88
2022/07/20 08:55:21;;;;;;;29.23;16.33;;;30.50;99.90;;;;;;6125888;23;20220;-88
2022/07/20 08:57:47;;;;;;;23.75;13.40;;;30.10;99.90;;;;;;6101666;23;20339;-89
2022/07/20 09:00:14;;;;;;;20.17;13.77;;;30.40;99.90;;;;;;6102631;23;20160;-87
2022/07/20 09:03:01;;;;;;;21.77;14.05;;;30.20;99.90;;;;;;6101681;23;20698;-88
2022/07/20 09:05:28;;;;;;;23.33;12.80;;;29.50;99.90;;;;;;6101768;23;20199;-87
2022/07/20 09:07:57;;;;;;;18.77;12.43;;;29.50;99.90;;;;;;6125860;23;20199;-87
2022/07/20 09:10:31;;;;;;;17.55;11.50;;;29.20;99.90;;;;;;6125781;23;20196;-87
2022/07/20 09:13:08;;;;;;;19.83;11.27;;;29.60;99.90;;;;;;6126227;23;20664;-88
2022/07/20 09:15:39;;;;;;;20.80;10.98;;;29.90;99.90;;;;;;6127340;23;20141;-89
2022/07/20 09:18:10;;;;;;;15.13;11.02;;;30.50;99.90;;;;;;6102452;23;20247;-87
2022/07/20 09:20:39;;;;;;;14.43;10.93;;;30.30;99.90;;;;;;6125307;23;20255;-87
2022/07/20 09:23:33;;;;;;;17.75;11.27;;;29.90;99.90;;;;;;6125349;23;20574;-86
2022/07/20 09:26:07;;;;;;;14.20;10.60;;;30.00;99.90;;;;;;6120578;23;20206;-87
2022/07/20 09:28:45;;;;;;;18.48;11.00;;;30.20;99.90;;;;;;6125904;23;20290;-87
2022/07/20 09:31:29;;;;;;;15.93;10.40;;;31.00;99.90;;;;;;6125489;23;20563;-87
2022/07/20 09:33:58;;;;;;;15.30;10.65;;;32.20;99.90;;;;;;6123363;23;20271;-86
2022/07/20 09:36:27;;;;;;;15.95;11.20;;;32.30;99.90;;;;;;6048934;23;20268;-87
2022/07/20 09:38:53;;;;;;;18.15;9.90;;;31.90;99.90;;;;;;6097496;23;20642;-87
2022/07/20 09:41:30;;;;;;;12.60;9.48;;;31.80;99.90;;;;;;6072352;23;20208;-87
2022/07/20 09:43:58;;;;;;;11.70;10.27;;;31.60;99.90;;;;;;6097475;23;20658;-87
2022/07/20 09:46:27;;;;;;;17.23;9.40;;;32.50;99.90;;;;;;6071810;23;20255;-88
2022/07/20 09:48:55;;;;;;;15.20;9.32;;;32.30;99.90;;;;;;6072102;23;20721;-87
2022/07/20 09:51:25;;;;;;;12.93;9.52;;;31.30;99.90;;;;;;6072568;23;20164;-86
2022/07/20 09:53:58;;;;;;;12.43;8.13;;;30.60;99.90;;;;;;6072273;23;20224;-88
2022/07/20 09:56:25;;;;;;;11.88;8.07;;;31.00;99.90;;;;;;6071942;23;20205;-87
2022/07/20 09:58:54;;;;;;;10.55;7.47;;;30.70;99.90;;;;;;6071948;23;20279;-87
2022/07/20 10:01:23;;;;;;;12.18;8.90;;;31.40;99.90;;;;;;6072308;23;20199;-88
2022/07/20 10:03:50;;;;;;;10.25;7.70;;;31.30;99.90;;;;;;6070916;23;20161;-90
2022/07/20 10:06:17;;;;;;;17.05;8.20;;;31.30;99.90;;;;;;6048975;23;20184;-87
2022/07/20 10:08:44;;;;;;;10.20;7.35;;;30.40;99.90;;;;;;6071684;23;20197;-86
2022/07/20 10:11:10;;;;;;;11.80;8.30;;;30.50;99.90;;;;;;6071802;23;20196;-87
2022/07/20 10:13:38;;;;;;;9.35;8.15;;;29.40;99.90;;;;;;6071580;23;20200;-87
2022/07/20 10:16:31;;;;;;;13.10;7.07;;;30.00;99.90;;;;;;6071284;23;20192;-87
2022/07/20 10:18:58;;;;;;;10.93;9.27;;;29.90;99.90;;;;;;6071392;23;20248;-87
2022/07/20 10:21:40;;;;;;;12.45;7.03;;;29.80;99.90;;;;;;6098005;23;20184;-85
2022/07/20 10:24:32;;;;;;;12.82;7.28;;;29.60;99.90;;;;;;6072178;23;20207;-87
2022/07/20 10:27:06;;;;;;;9.00;6.90;;;29.80;99.90;;;;;;6071737;23;20185;-87
2022/07/20 10:29:36;;;;;;;11.73;6.65;;;30.00;99.90;;;;;;6071369;23;20235;-87
2022/07/20 10:32:17;;;;;;;10.20;7.13;;;29.70;99.90;;;;;;6071433;23;20247;-87
2022/07/20 10:34:45;;;;;;;13.25;7.03;;;29.40;99.90;;;;;;6089282;23;20287;-86
2022/07/20 10:37:50;;;;;;;9.95;6.50;;;30.00;99.90;;;;;;6125019;23;20286;-87
2022/07/20 10:40:28;;;;;;;9.27;6.43;;;30.50;99.90;;;;;;5985195;23;20261;-87
2022/07/20 10:43:06;;;;;;;8.35;5.95;;;30.50;99.90;;;;;;5985425;23;20731;-87
2022/07/20 10:45:33;;;;;;;11.38;6.75;;;30.80;99.90;;;;;;6084528;23;20163;-87
2022/07/20 10:48:11;;;;;;;8.18;6.35;;;30.70;99.90;;;;;;6100743;23;20216;-89
2022/07/20 10:50:39;;;;;;;10.95;6.53;;;30.20;99.90;;;;;;6125175;23;20246;-87
2022/07/20 10:53:11;;;;;;;8.98;6.15;;;29.90;99.90;;;;;;6124892;23;20215;-88
2022/07/20 10:55:37;;;;;;;12.98;7.30;;;30.00;99.90;;;;;;6124332;23;20206;-90
2022/07/20 10:58:07;;;;;;;14.15;7.57;;;30.60;99.90;;;;;;6124039;23;20199;-90
2022/07/20 11:00:36;;;;;;;12.65;7.18;;;29.60;99.90;;;;;;6124465;23;20164;-89
2022/07/20 11:03:04;;;;;;;10.40;7.47;;;29.90;99.90;;;;;;6124991;23;20156;-89
2022/07/20 11:05:30;;;;;;;11.20;7.50;;;30.60;99.90;;;;;;6124714;23;20537;-88
2022/07/20 11:07:56;;;;;;;12.27;7.53;;;30.90;99.90;;;;;;6124332;23;20195;-88
2022/07/20 11:10:27;;;;;;;14.05;7.90;;;31.00;99.90;;;;;;6076687;23;20271;-89
2022/07/20 11:13:13;;;;;;;13.15;7.80;;;30.40;99.90;;;;;;6100419;23;20496;-89
2022/07/20 11:15:49;;;;;;;14.50;8.60;;;30.30;99.90;;;;;;6099696;23;20161;-88
2022/07/20 11:18:18;;;;;;;14.75;9.15;;;30.80;99.90;;;;;;6125266;23;20573;-87
2022/07/20 11:20:57;;;;;;;10.05;7.75;;;30.90;99.90;;;;;;6125494;23;20192;-89
2022/07/20 11:23:26;;;;;;;11.55;8.05;;;30.00;99.90;;;;;;6125904;23;20204;-88
2022/07/20 11:25:54;;;;;;;12.38;7.82;;;29.50;99.90;;;;;;6116086;23;20157;-88
2022/07/20 11:28:23;;;;;;;10.57;8.10;;;29.70;99.90;;;;;;6124483;23;20227;-88
2022/07/20 11:30:50;;;;;;;10.63;7.88;;;29.50;99.90;;;;;;6124501;23;20214;-87
2022/07/20 11:33:29;;;;;;;12.15;7.47;;;29.80;99.90;;;;;;6100608;23;20645;-88
2022/07/20 11:35:59;;;;;;;8.43;6.40;;;29.90;99.90;;;;;;6102821;23;20212;-88
2022/07/20 11:38:40;;;;;;;9.93;7.45;;;29.90;99.90;;;;;;6071485;23;20201;-93
2022/07/20 11:41:15;;;;;;;8.73;6.65;;;30.40;99.90;;;;;;6071912;23;20236;-88
2022/07/20 11:43:41;;;;;;;11.30;6.43;;;30.40;99.90;;;;;;6071750;23;20156;-89
2022/07/20 11:46:13;;;;;;;9.63;6.28;;;30.20;99.90;;;;;;6048112;23;20169;-89
2022/07/20 11:48:40;;;;;;;7.90;5.72;;;29.70;99.90;;;;;;6071291;23;20204;-89
2022/07/20 11:51:07;;;;;;;10.45;5.47;;;29.30;99.90;;;;;;6072088;23;20196;-90
2022/07/20 11:53:36;;;;;;;7.18;4.88;;;29.30;99.90;;;;;;6071701;23;20227;-89
2022/07/20 11:56:11;;;;;;;5.38;4.10;;;29.00;99.90;;;;;;6097228;23;20212;-89
2022/07/20 11:58:39;;;;;;;11.63;5.43;;;28.90;99.90;;;;;;6072461;23;20145;-90
2022/07/20 12:01:07;;;;;;;5.80;4.93;;;28.90;99.90;;;;;;6048436;23;20267;-88
2022/07/20 12:03:39;;;;;;;10.35;4.38;;;29.10;99.90;;;;;;6071494;23;20642;-88
2022/07/20 12:06:08;;;;;;;5.47;4.13;;;28.90;99.90;;;;;;6071356;23;20283;-88
2022/07/20 12:08:35;;;;;;;7.93;4.40;;;29.10;99.90;;;;;;6071974;23;20200;-88
2022/07/20 12:11:02;;;;;;;6.53;4.03;;;29.40;99.90;;;;;;6048005;23;20199;-88
2022/07/20 12:13:29;;;;;;;6.70;4.57;;;29.30;99.90;;;;;;6048701;23;20601;-88
2022/07/20 12:16:04;;;;;;;7.50;4.22;;;29.00;99.90;;;;;;6024227;23;20193;-89
2022/07/20 12:18:33;;;;;;;6.13;4.55;;;28.90;99.90;;;;;;6071694;23;20255;-89
2022/07/20 12:21:01;;;;;;;9.85;5.05;;;29.30;99.90;;;;;;6071820;23;20200;-89
2022/07/20 12:23:27;;;;;;;12.30;5.35;;;29.20;99.90;;;;;;6071782;23;20303;-88
2022/07/20 12:25:53;;;;;;;7.90;4.88;;;28.90;99.90;;;;;;6071628;23;20157;-89
2022/07/20 12:28:37;;;;;;;6.80;5.22;;;28.80;99.90;;;;;;6073455;23;20249;-87
2022/07/20 12:31:18;;;;;;;5.70;5.03;;;28.60;99.90;;;;;;6073904;23;20186;-88
2022/07/20 12:34:03;;;;;;;7.70;5.47;;;28.80;99.90;;;;;;6072809;23;20197;-88
2022/07/20 12:36:48;;;;;;;7.82;5.25;;;29.20;99.90;;;;;;6073064;23;20212;-89
2022/07/20 12:39:36;;;;;;;7.28;5.43;;;28.90;99.90;;;;;;6072966;23;20228;-88
2022/07/20 12:42:28;;;;;;;10.60;5.68;;;28.30;99.90;;;;;;6058325;23;20204;-87
2022/07/20 12:45:05;;;;;;;9.60;4.80;;;28.20;99.90;;;;;;6068436;23;20196;-89
2022/07/20 12:47:31;;;;;;;9.45;5.05;;;27.60;99.90;;;;;;6072830;23;20211;-88
2022/07/20 12:49:57;;;;;;;8.52;4.97;;;27.70;99.90;;;;;;6073424;23;20625;-89